Time;durP1;ratioP1;P1;durP2;ratioP2;P2;SDS_P1;SDS_P2;PMS_P1;PMS_P2;Temp;Humidity;BMP_temperature;BMP_pressure;BME280_temperature;BME280_humidity;BME280_pressure;Samples;Min_cycle;Max_cycle;Signal;HPM_P1;HPM_P2
2024/01/19 19:04:11;;;;;;;1.48;1.27;;;;;;;2.79;56.12;100325.59;4344484;32;20096;-92
2024/01/19 19:06:39;;;;;;;0.47;0.37;;;;;;;2.75;56.04;100323.88;4335489;33;33914;-91
2024/01/19 19:09:07;;;;;;;0.00;0.00;;;;;;;2.64;56.08;100333.47;4323373;32;32110;-92
2024/01/19 19:11:35;;;;;;;0.00;0.00;;;;;;;2.46;57.05;100347.41;4337403;32;32904;-90
2024/01/19 19:14:03;;;;;;;0.98;0.98;;;;;;;3.03;54.82;100342.88;4322196;33;33963;-91
2024/01/19 19:16:31;;;;;;;0.03;0.03;;;;;;;2.49;57.27;100366.53;4357298;32;33550;-92
2024/01/19 19:19:13;;;;;;;0.57;0.57;;;;;;;3.10;54.79;100370.69;4339099;32;33330;-91
2024/01/19 19:21:42;;;;;;;0.00;0.00;;;;;;;3.25;53.65;100369.75;4326593;32;32404;-91
2024/01/19 19:24:10;;;;;;;0.22;0.22;;;;;;;2.48;55.99;100375.22;4324654;32;33593;-92
2024/01/19 19:26:38;;;;;;;2.00;0.98;;;;;;;2.89;54.82;100365.53;4324065;32;32322;-91
2024/01/19 19:29:08;;;;;;;0.03;0.03;;;;;;;2.95;53.80;100360.34;4325060;33;32749;-91
2024/01/19 19:31:36;;;;;;;0.80;0.80;;;;;;;2.48;55.48;100375.22;4324914;33;33613;-91
2024/01/19 19:34:04;;;;;;;0.57;0.57;;;;;;;2.81;54.70;100373.41;4338319;32;33072;-91
2024/01/19 19:36:32;;;;;;;0.10;0.10;;;;;;;2.82;54.30;100377.75;4325252;32;32949;-91
2024/01/19 19:39:06;;;;;;;0.00;0.00;;;;;;;2.90;53.85;100382.97;4330854;32;33246;-91
2024/01/19 19:41:34;;;;;;;2.45;1.55;;;;;;;2.96;53.33;100381.19;4340612;32;34691;-91
2024/01/19 19:46:09;;;;;;;0.00;0.00;;;;;;;3.27;53.03;100387.13;4505998;31;175499;-89
2024/01/19 19:48:38;;;;;;;0.47;0.47;;;;;;;3.27;53.03;100387.13;4469015;31;34154;-89
2024/01/19 19:51:06;;;;;;;0.08;0.08;;;;;;;2.20;55.53;100400.44;4474349;32;33040;-89
2024/01/19 19:53:34;;;;;;;0.10;0.10;;;;;;;2.15;56.10;100402.19;4461611;32;33307;-89
2024/01/19 19:56:02;;;;;;;2.55;1.00;;;;;;;2.15;55.99;100402.19;4486349;32;34284;-91
2024/01/19 19:58:29;;;;;;;0.45;0.45;;;;;;;2.07;56.55;100408.25;4475043;32;34060;-91
2024/01/19 20:01:00;;;;;;;0.08;0.08;;;;;;;2.34;55.03;100410.00;4486488;32;32250;-91
2024/01/19 20:03:30;;;;;;;0.47;0.47;;;;;;;2.45;55.01;100411.72;4472788;32;32870;-91
2024/01/19 20:05:58;;;;;;;0.00;0.00;;;;;;;2.50;54.95;100409.09;4469981;32;32679;-91
2024/01/19 20:08:26;;;;;;;0.00;0.00;;;;;;;2.07;55.48;100414.31;4468748;31;32633;-89
2024/01/19 20:10:54;;;;;;;0.00;0.00;;;;;;;2.18;55.68;100416.94;4469690;32;32390;-90
2024/01/19 20:13:21;;;;;;;1.08;0.98;;;;;;;2.03;55.85;100415.19;4479229;32;33359;-89
2024/01/19 20:15:49;;;;;;;1.27;1.15;;;;;;;2.02;56.12;100421.28;4466708;32;32789;-89
2024/01/19 20:18:17;;;;;;;0.00;0.00;;;;;;;2.16;55.95;100427.34;4462834;32;32592;-89
2024/01/19 20:20:45;;;;;;;1.12;0.98;;;;;;;1.89;56.42;100429.91;4466464;32;32237;-89
2024/01/19 20:23:13;;;;;;;0.47;0.47;;;;;;;2.27;55.18;100442.97;4469625;32;32643;-89
2024/01/19 20:25:41;;;;;;;0.68;0.68;;;;;;;2.14;55.57;100444.72;4468375;32;32534;-89
2024/01/19 20:28:09;;;;;;;0.10;0.10;;;;;;;2.50;54.07;100446.47;4482292;32;31678;-89
2024/01/19 20:30:37;;;;;;;0.00;0.00;;;;;;;1.74;56.72;100460.28;4476666;32;32390;-89
2024/01/19 20:33:05;;;;;;;0.05;0.05;;;;;;;2.18;54.99;100462.06;4481124;32;34786;-89
2024/01/19 20:35:33;;;;;;;0.10;0.10;;;;;;;1.90;55.55;100447.28;4479096;32;33739;-89
2024/01/19 20:38:00;;;;;;;0.62;0.62;;;;;;;1.53;57.68;100462.81;4480990;31;31628;-89
2024/01/19 20:40:30;;;;;;;0.00;0.00;;;;;;;1.62;56.98;100467.19;4468785;32;32236;-88
2024/01/19 20:42:59;;;;;;;1.17;1.08;;;;;;;1.59;56.88;100468.03;4466321;32;32937;-89
2024/01/19 20:45:26;;;;;;;1.20;0.57;;;;;;;2.05;55.98;100470.78;4466623;32;33307;-89
2024/01/19 20:47:54;;;;;;;0.00;0.00;;;;;;;1.93;56.30;100473.34;4463063;32;33206;-89
2024/01/19 20:50:22;;;;;;;0.00;0.00;;;;;;;1.86;56.59;100484.63;4462151;32;33287;-89
2024/01/19 20:52:49;;;;;;;0.00;0.00;;;;;;;1.88;56.28;100488.94;4474731;32;32961;-88
2024/01/19 20:55:18;;;;;;;0.10;0.10;;;;;;;1.52;57.54;100495.78;4475666;32;32818;-89
2024/01/19 20:57:46;;;;;;;0.47;0.47;;;;;;;1.63;57.07;100502.78;4455343;32;33296;-88
2024/01/19 21:00:14;;;;;;;3.47;2.47;;;;;;;1.71;57.52;100507.16;4475760;32;34263;-88
2024/01/19 21:02:43;;;;;;;0.00;0.00;;;;;;;1.52;58.07;100507.94;4467909;32;34846;-88
2024/01/19 21:05:13;;;;;;;0.00;0.00;;;;;;;1.78;56.70;100508.91;4455775;32;33137;-90
2024/01/19 21:07:41;;;;;;;0.15;0.15;;;;;;;1.87;56.38;100508.06;4472087;32;33952;-91
2024/01/19 21:10:10;;;;;;;0.85;0.85;;;;;;;1.48;57.74;100520.06;4444915;32;34445;-91
2024/01/19 21:12:38;;;;;;;0.00;0.00;;;;;;;1.72;56.62;100510.63;4451187;32;33619;-92
2024/01/19 21:15:10;;;;;;;0.08;0.08;;;;;;;1.49;56.76;100520.94;4485110;32;34481;-91
2024/01/19 21:17:39;;;;;;;2.20;2.03;;;;;;;1.86;56.09;100521.09;4460167;32;31850;-90
2024/01/19 21:20:41;;;;;;;0.47;0.47;;;;;;;1.81;55.93;100522.81;4453396;32;33362;-90
2024/01/19 21:23:10;;;;;;;0.40;0.40;;;;;;;1.85;55.77;100520.19;4458186;32;31977;-90
2024/01/19 21:25:39;;;;;;;0.17;0.17;;;;;;;1.79;55.91;100528.84;4457257;32;32054;-90
2024/01/19 21:28:07;;;;;;;0.00;0.00;;;;;;;1.63;56.22;100526.19;4472860;32;32608;-91
2024/01/19 21:30:35;;;;;;;0.00;0.00;;;;;;;1.56;55.90;100520.06;4460253;32;32824;-91
2024/01/19 21:33:03;;;;;;;0.40;0.40;;;;;;;1.79;55.58;100523.66;4475751;32;32040;-91
2024/01/19 21:35:32;;;;;;;1.02;0.52;;;;;;;1.62;55.89;100535.75;4460121;32;32671;-90
2024/01/19 21:38:01;;;;;;;0.85;0.65;;;;;;;1.52;55.89;100534.84;4447261;32;32414;-90
2024/01/19 21:40:29;;;;;;;0.20;0.20;;;;;;;1.63;55.10;100541.81;4459988;32;32682;-91
2024/01/19 21:42:57;;;;;;;2.37;1.65;;;;;;;1.61;54.92;100546.13;4459941;32;32815;-90
2024/01/19 21:45:27;;;;;;;0.62;0.62;;;;;;;1.96;54.07;100544.53;4459957;32;32062;-90
2024/01/19 21:47:54;;;;;;;0.00;0.00;;;;;;;1.59;54.74;100545.25;4459693;32;32744;-91
2024/01/19 21:50:22;;;;;;;0.00;0.00;;;;;;;1.89;53.70;100547.12;4468498;32;33424;-90
2024/01/19 21:52:50;;;;;;;0.95;0.90;;;;;;;1.64;54.61;100556.56;4457284;32;33362;-90
2024/01/19 21:55:22;;;;;;;0.43;0.43;;;;;;;2.29;51.96;100548.09;4465945;32;31894;-90
2024/01/19 21:57:49;;;;;;;0.10;0.10;;;;;;;2.04;52.88;100549.75;4453407;32;32664;-91
2024/01/19 22:00:17;;;;;;;0.00;0.00;;;;;;;1.75;53.47;100547.94;4472806;32;32783;-90
2024/01/19 22:02:47;;;;;;;0.55;0.55;;;;;;;1.67;54.32;100554.00;4459550;32;33186;-90
2024/01/19 22:05:15;;;;;;;0.00;0.00;;;;;;;1.74;54.21;100556.59;4459610;32;33062;-90
2024/01/19 22:07:43;;;;;;;1.02;0.95;;;;;;;1.46;55.12;100555.59;4458604;32;32669;-91
2024/01/19 22:10:12;;;;;;;0.57;0.57;;;;;;;1.78;54.55;100562.72;4472706;32;32487;-90
2024/01/19 22:12:40;;;;;;;1.17;1.17;;;;;;;2.27;52.00;100563.72;4459671;32;33513;-90
2024/01/19 22:15:08;;;;;;;0.37;0.32;;;;;;;1.89;53.50;100570.56;4472726;32;32793;-90
2024/01/19 22:17:37;;;;;;;0.03;0.03;;;;;;;2.19;52.23;100573.28;4459591;32;31850;-90
2024/01/19 22:20:05;;;;;;;0.17;0.17;;;;;;;2.08;53.11;100577.56;4459772;32;34192;-90
2024/01/19 22:22:33;;;;;;;0.20;0.20;;;;;;;1.20;55.17;100583.22;4458872;32;33489;-90
2024/01/19 22:25:02;;;;;;;1.42;0.40;;;;;;;1.82;53.27;100590.50;4459871;32;33084;-90
2024/01/19 22:27:31;;;;;;;1.02;1.02;;;;;;;1.91;53.13;100589.69;4485204;32;32392;-90
2024/01/19 22:29:59;;;;;;;0.00;0.00;;;;;;;2.13;52.36;100585.41;4459565;32;32615;-90
2024/01/19 22:32:27;;;;;;;0.22;0.22;;;;;;;1.85;52.68;100594.84;4457053;32;33040;-91
2024/01/19 22:34:56;;;;;;;0.00;0.00;;;;;;;1.79;53.18;100595.69;4456827;32;32995;-91
2024/01/19 22:37:24;;;;;;;0.45;0.32;;;;;;;1.92;53.03;100602.69;4448937;32;31922;-90
2024/01/19 22:39:52;;;;;;;0.00;0.00;;;;;;;1.94;52.85;100607.91;4463395;32;32521;-90
2024/01/19 22:42:19;;;;;;;0.15;0.15;;;;;;;1.73;53.58;100617.34;4472161;32;33613;-91
2024/01/19 22:44:48;;;;;;;0.30;0.30;;;;;;;1.73;53.83;100621.69;4459617;32;32595;-90
2024/01/19 22:47:16;;;;;;;0.47;0.47;;;;;;;1.93;53.46;100629.59;4459436;32;32308;-90
2024/01/19 22:49:44;;;;;;;0.57;0.57;;;;;;;1.83;53.35;100639.09;4472264;32;32454;-90
2024/01/19 22:52:12;;;;;;;3.95;1.25;;;;;;;1.93;52.80;100645.22;4453623;32;33308;-87
2024/01/19 22:54:40;;;;;;;0.35;0.35;;;;;;;2.17;52.23;100640.13;4474446;32;33869;-88
2024/01/19 22:57:08;;;;;;;0.00;0.00;;;;;;;2.01;52.31;100653.97;4468284;32;32509;-88
2024/01/19 22:59:36;;;;;;;1.12;1.12;;;;;;;2.27;51.49;100652.31;4462836;32;32752;-88
2024/01/19 23:02:04;;;;;;;0.00;0.00;;;;;;;2.20;51.93;100645.34;4462306;32;32858;-88
2024/01/19 23:04:32;;;;;;;1.37;0.85;;;;;;;2.21;51.81;100662.72;4471284;32;33118;-88
2024/01/19 23:07:00;;;;;;;0.00;0.00;;;;;;;2.24;51.85;100660.16;4462459;32;32192;-88
2024/01/19 23:09:29;;;;;;;1.52;0.40;;;;;;;2.04;52.83;100665.28;4477185;32;34192;-88
2024/01/19 23:11:56;;;;;;;0.00;0.00;;;;;;;2.30;52.28;100662.75;4444623;32;33426;-88
2024/01/19 23:14:24;;;;;;;0.20;0.20;;;;;;;2.41;51.75;100662.78;4472450;32;33368;-88
2024/01/19 23:16:53;;;;;;;0.05;0.05;;;;;;;1.92;53.23;100659.12;4464773;32;32209;-88
2024/01/19 23:19:22;;;;;;;0.45;0.32;;;;;;;2.28;52.24;100654.09;4476619;32;34240;-87
2024/01/19 23:21:55;;;;;;;0.00;0.00;;;;;;;2.15;52.97;100647.06;4482423;32;33924;-87
2024/01/19 23:24:23;;;;;;;0.08;0.08;;;;;;;2.08;53.13;100655.72;4457654;32;32995;-87
2024/01/19 23:26:51;;;;;;;2.28;1.85;;;;;;;2.11;53.22;100667.91;4457756;32;33280;-87
2024/01/19 23:29:19;;;;;;;0.10;0.10;;;;;;;1.60;54.58;100671.94;4475502;32;33731;-86
2024/01/19 23:31:51;;;;;;;0.52;0.35;;;;;;;1.75;54.59;100675.50;4482543;32;34418;-87
2024/01/19 23:34:19;;;;;;;0.25;0.25;;;;;;;1.58;54.73;100679.75;4457005;32;32722;-86
2024/01/19 23:36:48;;;;;;;0.00;0.00;;;;;;;1.69;54.98;100680.69;4463968;32;32441;-87
2024/01/19 23:39:15;;;;;;;0.10;0.10;;;;;;;1.95;53.78;100670.44;4453205;32;32367;-88
2024/01/19 23:41:43;;;;;;;0.00;0.00;;;;;;;2.05;53.72;100673.97;4476553;32;34138;-87
2024/01/19 23:44:11;;;;;;;0.20;0.20;;;;;;;1.92;54.14;100679.97;4470026;32;32442;-87
2024/01/19 23:46:43;;;;;;;0.10;0.10;;;;;;;2.13;53.47;100680.06;4478790;32;33472;-87
2024/01/19 23:49:11;;;;;;;0.00;0.00;;;;;;;1.70;54.93;100682.41;4454245;32;32285;-87
2024/01/19 23:51:39;;;;;;;1.55;1.45;;;;;;;1.51;55.62;100681.41;4456007;32;31917;-88
2024/01/19 23:54:07;;;;;;;0.00;0.00;;;;;;;1.54;55.55;100678.00;4464633;32;33900;-89
2024/01/19 23:56:34;;;;;;;0.00;0.00;;;;;;;1.76;55.09;100679.88;4456055;32;32061;-89
2024/01/19 23:59:04;;;;;;;0.37;0.13;;;;;;;1.61;55.73;100684.09;4465920;32;32768;-89
